createdAt,value
2022-12-24T00:01:06.542Z,6.13
2022-12-24T00:03:34.291Z,4.50
2022-12-24T00:06:08.526Z,5.10
2022-12-24T00:08:35.947Z,5.63
2022-12-24T00:11:03.005Z,5.30
2022-12-24T00:13:29.978Z,4.23
2022-12-24T00:15:59.125Z,5.33
2022-12-24T00:18:26.079Z,5.30
2022-12-24T00:20:53.153Z,5.30
2022-12-24T00:23:20.055Z,5.20
2022-12-24T00:25:46.968Z,5.47
2022-12-24T00:28:14.905Z,4.13
2022-12-24T00:30:43.008Z,4.60
2022-12-24T00:33:10.114Z,4.63
2022-12-24T00:35:37.936Z,5.07
2022-12-24T00:38:05.363Z,4.83
2022-12-24T00:40:32.558Z,4.63
2022-12-24T00:42:59.427Z,4.97
2022-12-24T00:45:28.032Z,6.00
2022-12-24T00:47:55.042Z,5.23
2022-12-24T00:50:21.844Z,5.50
2022-12-24T00:52:48.773Z,4.77
2022-12-24T00:55:15.569Z,5.03
2022-12-24T00:57:42.428Z,4.77
2022-12-24T01:00:09.891Z,4.30
2022-12-24T01:02:36.914Z,5.83
2022-12-24T01:05:12.833Z,5.57
2022-12-24T01:07:44.653Z,6.60
2022-12-24T01:10:14.043Z,5.87
2022-12-24T01:12:42.287Z,4.77
2022-12-24T01:15:10.128Z,4.80
2022-12-24T01:17:37.277Z,4.97
2022-12-24T01:20:06.680Z,4.93
2022-12-24T01:22:33.628Z,4.60
2022-12-24T01:25:00.407Z,6.23
2022-12-24T01:27:27.258Z,5.17
2022-12-24T01:29:54.140Z,4.67
2022-12-24T01:32:21.528Z,4.63
2022-12-24T01:34:48.358Z,6.53
2022-12-24T01:37:15.223Z,5.10
2022-12-24T01:39:42.025Z,5.10
2022-12-24T01:42:39.955Z,4.87
2022-12-24T01:45:31.513Z,4.40
2022-12-24T01:47:58.331Z,5.10
2022-12-24T01:50:25.180Z,5.87
2022-12-24T01:52:51.930Z,4.83
2022-12-24T01:55:19.655Z,5.40
2022-12-24T01:57:52.118Z,5.43
2022-12-24T02:00:19.467Z,5.83
2022-12-24T02:02:49.617Z,5.00
2022-12-24T02:05:23.657Z,5.90
2022-12-24T02:07:50.999Z,6.33
2022-12-24T02:10:18.438Z,5.87
2022-12-24T02:12:46.089Z,4.93
2022-12-24T02:15:15.030Z,6.17
2022-12-24T02:18:06.828Z,4.80
2022-12-24T02:21:10.540Z,4.53
2022-12-24T02:24:00.585Z,4.50
2022-12-24T02:27:01.735Z,4.77
2022-12-24T02:29:28.669Z,5.83
2022-12-24T02:32:04.455Z,5.33
2022-12-24T02:38:27.507Z,5.43
2022-12-24T02:41:20.492Z,6.13
2022-12-24T02:43:48.811Z,6.50
2022-12-24T02:46:23.669Z,5.00
2022-12-24T02:48:51.163Z,4.70
2022-12-24T02:51:23.431Z,5.13
2022-12-24T02:53:50.363Z,5.27
2022-12-24T02:56:54.128Z,4.70
2022-12-24T02:59:34.820Z,3.90
2022-12-24T03:02:29.422Z,4.27
2022-12-24T03:05:02.439Z,5.43
2022-12-24T03:07:36.596Z,5.53
2022-12-24T03:10:26.372Z,5.77
2022-12-24T03:12:57.711Z,5.17
2022-12-24T03:15:29.731Z,4.23
2022-12-24T03:18:00.449Z,4.97
2022-12-24T03:20:40.007Z,5.30
2022-12-24T03:23:07.403Z,5.13
2022-12-24T03:25:38.586Z,5.87
2022-12-24T03:28:08.378Z,4.63
2022-12-24T03:30:35.346Z,5.53
2022-12-24T03:33:02.146Z,4.57
2022-12-24T03:35:28.953Z,4.80
2022-12-24T03:37:56.669Z,4.37
2022-12-24T03:40:23.503Z,5.50
2022-12-24T03:42:50.305Z,5.47
2022-12-24T03:45:17.181Z,5.17
2022-12-24T03:47:43.913Z,4.63
2022-12-24T03:50:11.123Z,4.27
2022-12-24T03:52:37.820Z,4.80
2022-12-24T03:55:05.044Z,4.73
2022-12-24T03:57:31.856Z,5.47
2022-12-24T03:59:58.589Z,5.27
2022-12-24T04:02:25.601Z,6.80
2022-12-24T04:04:52.390Z,5.03
2022-12-24T04:07:19.116Z,4.50
2022-12-24T04:09:45.838Z,4.60
2022-12-24T04:12:12.551Z,4.47
2022-12-24T04:14:39.300Z,4.63
2022-12-24T04:17:06.269Z,4.07
2022-12-24T04:19:33.263Z,4.97
2022-12-24T04:22:00.034Z,4.17
2022-12-24T04:24:26.884Z,4.13
2022-12-24T04:26:53.715Z,4.43
2022-12-24T04:29:20.448Z,4.23
2022-12-24T04:31:47.320Z,4.07
2022-12-24T04:34:14.100Z,4.27
2022-12-24T04:36:40.837Z,4.30
2022-12-24T04:39:07.862Z,5.37
2022-12-24T04:41:34.708Z,4.13
2022-12-24T04:44:01.547Z,5.23
2022-12-24T04:46:33.626Z,5.37
2022-12-24T04:49:01.464Z,5.30
2022-12-24T04:51:29.222Z,4.43
2022-12-24T04:53:57.020Z,3.53
2022-12-24T04:56:26.763Z,4.40
2022-12-24T04:58:53.971Z,3.73
2022-12-24T05:01:27.520Z,4.43
2022-12-24T05:03:54.838Z,3.90
2022-12-24T05:06:28.967Z,4.53
2022-12-24T05:08:57.523Z,4.33
2022-12-24T05:11:24.792Z,5.40
2022-12-24T05:13:51.758Z,5.03
2022-12-24T05:16:20.611Z,4.67
2022-12-24T05:18:47.593Z,4.03
2022-12-24T05:21:17.993Z,3.50
2022-12-24T05:24:03.832Z,4.47
2022-12-24T05:27:05.116Z,4.53
2022-12-24T05:29:32.310Z,4.13
2022-12-24T05:31:59.016Z,5.00
2022-12-24T05:34:25.803Z,4.87
2022-12-24T05:36:52.798Z,5.13
2022-12-24T05:39:19.589Z,4.27
2022-12-24T05:41:47.780Z,4.67
2022-12-24T05:44:15.017Z,4.67
2022-12-24T05:46:42.077Z,5.33
2022-12-24T05:49:08.950Z,4.83
2022-12-24T05:51:35.754Z,4.07
2022-12-24T05:54:02.690Z,4.43
2022-12-24T05:56:29.420Z,4.40
2022-12-24T05:58:56.272Z,4.73
2022-12-24T06:01:23.937Z,4.87
2022-12-24T06:03:52.345Z,4.07
2022-12-24T06:06:22.308Z,4.23
2022-12-24T06:08:50.309Z,5.30
2022-12-24T06:11:19.368Z,4.63
2022-12-24T06:13:47.830Z,5.63
2022-12-24T06:16:17.570Z,4.63
2022-12-24T06:18:45.539Z,5.47
2022-12-24T06:21:13.183Z,3.77
2022-12-24T06:23:42.814Z,4.30
2022-12-24T06:26:13.502Z,4.53
2022-12-24T06:28:40.547Z,5.43
2022-12-24T06:31:14.825Z,4.97
2022-12-24T06:33:41.920Z,3.87
2022-12-24T06:36:23.640Z,5.20
2022-12-24T06:38:51.927Z,4.80
2022-12-24T06:41:20.090Z,5.20
2022-12-24T06:43:48.781Z,4.50
2022-12-24T06:46:16.899Z,3.70
2022-12-24T06:48:45.201Z,3.60
2022-12-24T06:51:13.523Z,4.47
2022-12-24T06:53:41.384Z,5.90
2022-12-24T06:56:11.003Z,4.43
2022-12-24T06:58:38.408Z,3.63
2022-12-24T07:01:07.971Z,4.17
2022-12-24T07:03:35.262Z,4.87
2022-12-24T07:06:02.893Z,4.57
2022-12-24T07:08:30.366Z,5.03
2022-12-24T07:10:59.943Z,4.30
2022-12-24T07:13:26.810Z,5.60
2022-12-24T07:16:02.446Z,5.60
2022-12-24T07:18:29.761Z,4.77
2022-12-24T07:20:56.979Z,4.73
2022-12-24T07:23:23.907Z,5.20
2022-12-24T07:25:51.122Z,4.83
2022-12-24T07:28:23.867Z,5.13
2022-12-24T07:30:52.986Z,5.03
2022-12-24T07:33:20.161Z,3.77
2022-12-24T07:35:52.180Z,4.37
2022-12-24T07:38:22.846Z,5.43
2022-12-24T07:40:49.549Z,5.10
2022-12-24T07:43:16.310Z,5.60
2022-12-24T07:45:44.183Z,5.50
2022-12-24T07:48:11.038Z,5.40
2022-12-24T07:50:37.759Z,4.60
2022-12-24T07:53:05.023Z,6.03
2022-12-24T07:55:31.766Z,5.07
2022-12-24T07:57:58.692Z,5.23
2022-12-24T08:00:25.445Z,5.10
2022-12-24T08:02:52.371Z,5.03
2022-12-24T08:05:19.203Z,7.70
2022-12-24T08:07:46.006Z,4.60
2022-12-24T08:10:12.857Z,5.40
2022-12-24T08:12:39.602Z,4.80
2022-12-24T08:15:06.952Z,4.70
2022-12-24T08:17:33.808Z,4.97
2022-12-24T08:20:00.542Z,5.37
2022-12-24T08:22:27.353Z,6.07
2022-12-24T08:24:54.155Z,5.30
2022-12-24T08:27:20.920Z,5.67
2022-12-24T08:29:47.622Z,5.33
2022-12-24T08:32:18.156Z,5.37
2022-12-24T08:34:50.369Z,4.17
2022-12-24T08:37:20.363Z,5.50
2022-12-24T08:39:47.246Z,4.73
2022-12-24T08:42:14.301Z,6.47
2022-12-24T08:44:41.260Z,4.90
2022-12-24T08:47:08.157Z,5.07
2022-12-24T08:49:35.019Z,5.07
2022-12-24T08:52:01.807Z,6.27
2022-12-24T08:54:28.694Z,4.60
2022-12-24T08:56:55.503Z,4.90
2022-12-24T08:59:22.685Z,5.67
2022-12-24T09:01:49.944Z,5.73
2022-12-24T09:04:16.863Z,4.83
2022-12-24T09:06:44.164Z,5.53
2022-12-24T09:09:11.003Z,5.40
2022-12-24T09:11:37.805Z,4.47
2022-12-24T09:14:04.673Z,4.73
2022-12-24T09:16:31.579Z,6.40
2022-12-24T09:18:59.143Z,4.63
2022-12-24T09:21:25.898Z,5.17
2022-12-24T09:23:52.641Z,4.77
2022-12-24T09:26:27.449Z,4.87
2022-12-24T09:28:54.434Z,4.70
2022-12-24T09:31:22.058Z,5.13
2022-12-24T09:33:50.141Z,5.27
2022-12-24T09:36:17.769Z,4.70
2022-12-24T09:38:45.377Z,5.13
2022-12-24T09:41:38.209Z,4.63
2022-12-24T09:44:42.039Z,5.07
2022-12-24T09:47:29.933Z,5.37
2022-12-24T09:49:59.387Z,5.70
2022-12-24T09:52:41.279Z,5.37
2022-12-24T09:55:19.817Z,4.60
2022-12-24T09:57:49.365Z,4.77
2022-12-24T10:00:32.006Z,4.50
2022-12-24T10:02:59.015Z,4.87
2022-12-24T10:05:40.980Z,4.70
2022-12-24T10:08:36.701Z,4.40
2022-12-24T10:11:30.199Z,5.07
2022-12-24T10:14:16.220Z,5.33
2022-12-24T10:17:06.734Z,4.60
2022-12-24T10:19:54.789Z,4.33
2022-12-24T10:22:52.005Z,5.23
2022-12-24T10:25:22.406Z,5.67
2022-12-24T10:27:49.489Z,5.10
2022-12-24T10:30:19.801Z,4.93
2022-12-24T10:32:54.796Z,5.80
2022-12-24T10:35:29.234Z,5.07
2022-12-24T10:37:58.221Z,4.57
2022-12-24T10:40:50.971Z,4.17
2022-12-24T10:43:23.174Z,4.47
2022-12-24T10:46:20.851Z,5.43
2022-12-24T10:49:02.320Z,5.40
2022-12-24T10:51:44.938Z,4.50
2022-12-24T10:54:27.699Z,5.10
2022-12-24T10:57:00.733Z,4.03
2022-12-24T10:59:39.157Z,4.90
2022-12-24T11:02:27.281Z,4.93
2022-12-24T11:04:54.467Z,4.57
2022-12-24T11:07:23.261Z,5.27
2022-12-24T11:10:05.651Z,4.73
2022-12-24T11:13:00.210Z,5.17
2022-12-24T11:15:34.884Z,4.83
2022-12-24T11:18:05.765Z,3.97
2022-12-24T11:20:34.860Z,4.10
2022-12-24T11:23:02.863Z,5.03
2022-12-24T11:25:32.819Z,4.57
2022-12-24T11:28:18.469Z,4.77
2022-12-24T11:31:00.501Z,4.83
2022-12-24T11:33:47.026Z,4.20
2022-12-24T11:36:14.285Z,4.20
2022-12-24T11:38:41.090Z,3.70
2022-12-24T11:41:12.446Z,4.00
2022-12-24T11:43:48.766Z,3.97
2022-12-24T11:46:39.056Z,4.20
2022-12-24T11:49:12.037Z,4.93
2022-12-24T11:52:11.025Z,4.23
2022-12-24T11:54:49.710Z,4.10
2022-12-24T11:57:20.155Z,4.27
2022-12-24T11:59:48.699Z,3.80
2022-12-24T12:02:40.035Z,4.60
2022-12-24T12:05:16.571Z,4.23
2022-12-24T12:07:47.135Z,4.80
2022-12-24T12:10:19.857Z,4.60
2022-12-24T12:13:01.550Z,3.90
2022-12-24T12:15:40.444Z,3.80
2022-12-24T12:18:20.600Z,5.10
2022-12-24T12:21:02.150Z,4.93
2022-12-24T12:23:33.724Z,4.17
2022-12-24T12:26:21.899Z,4.67
2022-12-24T12:29:07.305Z,4.50
2022-12-24T12:31:34.296Z,3.70
2022-12-24T12:34:26.936Z,4.00
2022-12-24T12:37:03.595Z,3.83
2022-12-24T12:39:31.824Z,4.00
2022-12-24T12:42:11.815Z,4.83
2022-12-24T12:45:00.311Z,5.07
2022-12-24T12:47:50.185Z,4.60
2022-12-24T12:50:19.759Z,4.70
2022-12-24T12:53:17.362Z,4.10
2022-12-24T12:55:57.878Z,3.83
2022-12-24T12:58:43.653Z,4.27
2022-12-24T13:01:33.115Z,3.90
2022-12-24T13:04:29.340Z,3.67
2022-12-24T13:07:21.235Z,5.17
2022-12-24T13:10:33.058Z,4.63
2022-12-24T13:13:48.923Z,4.40
2022-12-24T13:16:48.042Z,5.77
2022-12-24T13:19:36.106Z,4.30
2022-12-24T13:22:05.310Z,4.13
2022-12-24T13:24:33.267Z,5.43
2022-12-24T13:27:27.723Z,4.93
2022-12-24T13:30:37.409Z,4.20
2022-12-24T13:33:08.015Z,6.10
2022-12-24T13:35:38.262Z,4.87
2022-12-24T13:38:27.383Z,5.30
2022-12-24T13:40:55.469Z,4.70
2022-12-24T13:43:22.316Z,4.87
2022-12-24T13:45:51.835Z,4.83
2022-12-24T13:48:25.303Z,4.97
2022-12-24T13:50:57.925Z,4.97
2022-12-24T13:53:42.815Z,5.37
2022-12-24T13:56:12.337Z,5.03
2022-12-24T13:58:46.163Z,4.77
2022-12-24T14:01:21.479Z,5.50
2022-12-24T14:03:53.104Z,5.20
2022-12-24T14:06:49.781Z,6.27
2022-12-24T14:09:19.940Z,6.07
2022-12-24T14:11:59.293Z,5.37
2022-12-24T14:14:32.271Z,6.07
2022-12-24T14:17:01.768Z,5.00
2022-12-24T14:19:44.849Z,5.60
2022-12-24T14:22:28.848Z,5.47
2022-12-24T14:25:10.329Z,5.50
2022-12-24T14:27:46.267Z,5.33
2022-12-24T14:30:30.120Z,5.97
2022-12-24T14:32:57.285Z,5.27
2022-12-24T14:35:27.651Z,5.77
2022-12-24T14:38:12.957Z,6.23
2022-12-24T14:40:52.016Z,4.90
2022-12-24T14:43:35.649Z,7.30
2022-12-24T14:46:31.565Z,6.00
2022-12-24T14:49:11.230Z,5.33
2022-12-24T14:51:43.348Z,6.67
2022-12-24T14:54:25.180Z,6.23
2022-12-24T14:57:14.336Z,5.50
2022-12-24T14:59:54.526Z,6.43
2022-12-24T15:02:45.804Z,6.93
2022-12-24T15:05:28.864Z,5.43
2022-12-24T15:08:01.338Z,5.97
2022-12-24T15:10:40.868Z,5.60
2022-12-24T15:13:36.163Z,5.63
2022-12-24T15:16:12.488Z,5.87
2022-12-24T15:19:10.405Z,6.03
2022-12-24T15:21:42.703Z,6.53
2022-12-24T15:24:26.678Z,6.60
2022-12-24T15:26:54.130Z,6.03
2022-12-24T15:29:27.436Z,6.20
2022-12-24T15:31:59.780Z,5.43
2022-12-24T15:34:26.466Z,6.20
2022-12-24T15:36:53.258Z,6.37
2022-12-24T15:39:20.099Z,6.10
2022-12-24T15:42:11.483Z,6.17
2022-12-24T15:44:40.793Z,6.50
2022-12-24T15:47:14.491Z,7.57
2022-12-24T15:49:46.486Z,6.67
2022-12-24T15:52:17.008Z,7.10
2022-12-24T15:54:45.991Z,7.37
2022-12-24T15:57:32.063Z,6.80
2022-12-24T16:00:01.023Z,6.17
2022-12-24T16:02:42.025Z,6.03
2022-12-24T16:05:35.735Z,7.30
2022-12-24T16:08:14.373Z,6.57
2022-12-24T16:10:54.681Z,7.73
2022-12-24T16:13:34.992Z,8.80
2022-12-24T16:16:13.410Z,7.77
2022-12-24T16:18:53.649Z,7.03
2022-12-24T16:21:28.719Z,8.33
2022-12-24T16:23:58.686Z,6.77
2022-12-24T16:26:26.465Z,8.53
2022-12-24T16:28:57.142Z,7.40
2022-12-24T16:31:58.481Z,8.10
2022-12-24T16:34:30.569Z,9.00
2022-12-24T16:36:58.429Z,7.43
2022-12-24T16:39:30.884Z,8.13
2022-12-24T16:42:19.809Z,7.90
2022-12-24T16:44:47.251Z,7.17
2022-12-24T16:47:23.866Z,8.00
2022-12-24T16:49:51.041Z,6.93
2022-12-24T16:52:25.779Z,7.97
2022-12-24T16:54:52.725Z,7.90
2022-12-24T16:57:19.704Z,7.20
2022-12-24T16:59:46.754Z,8.83
2022-12-24T17:02:15.722Z,8.17
2022-12-24T17:04:42.894Z,9.03
2022-12-24T17:07:11.541Z,9.30
2022-12-24T17:09:38.369Z,8.70
2022-12-24T17:12:05.487Z,7.83
2022-12-24T17:14:32.228Z,8.60
2022-12-24T17:16:59.103Z,7.90
2022-12-24T17:19:25.889Z,6.83
2022-12-24T17:21:52.860Z,8.97
2022-12-24T17:24:19.573Z,8.17
2022-12-24T17:26:46.440Z,8.90
2022-12-24T17:29:13.261Z,7.53
2022-12-24T17:31:40.890Z,8.30
2022-12-24T17:34:07.813Z,8.20
2022-12-24T17:36:34.656Z,8.17
2022-12-24T17:39:01.476Z,8.23
2022-12-24T17:41:28.406Z,8.53
2022-12-24T17:43:55.221Z,7.30
2022-12-24T17:46:23.570Z,8.07
2022-12-24T17:48:51.600Z,7.07
2022-12-24T17:51:21.097Z,7.47
2022-12-24T17:53:48.636Z,6.87
2022-12-24T17:56:15.865Z,7.30
2022-12-24T17:58:44.322Z,7.50
2022-12-24T18:01:17.509Z,7.00
2022-12-24T18:03:45.323Z,7.43
2022-12-24T18:06:13.308Z,7.53
2022-12-24T18:08:41.408Z,8.40
2022-12-24T18:11:19.321Z,6.60
2022-12-24T18:13:46.682Z,7.33
2022-12-24T18:16:21.754Z,7.03
2022-12-24T18:18:49.838Z,6.77
2022-12-24T18:21:19.253Z,7.83
2022-12-24T18:23:47.825Z,7.53
2022-12-24T18:26:16.391Z,7.37
2022-12-24T18:28:44.096Z,7.60
2022-12-24T18:31:17.334Z,6.43
2022-12-24T18:33:45.529Z,6.60
2022-12-24T18:36:12.834Z,6.67
2022-12-24T18:38:40.717Z,6.43
2022-12-24T18:41:19.910Z,6.30
2022-12-24T18:43:47.133Z,7.70
2022-12-24T18:46:23.973Z,6.23
2022-12-24T18:48:51.897Z,6.43
2022-12-24T18:51:22.220Z,6.43
2022-12-24T18:53:49.501Z,7.23
2022-12-24T18:56:21.447Z,6.80
2022-12-24T18:58:48.929Z,6.23
2022-12-24T19:01:30.761Z,6.57
2022-12-24T19:03:58.448Z,6.23
2022-12-24T19:06:26.066Z,6.67
2022-12-24T19:08:59.143Z,5.90
2022-12-24T19:11:29.261Z,6.17
2022-12-24T19:13:57.935Z,6.77
2022-12-24T19:16:25.428Z,7.37
2022-12-24T19:18:52.279Z,7.20
2022-12-24T19:21:19.135Z,6.20
2022-12-24T19:23:47.038Z,6.77
2022-12-24T19:26:15.775Z,6.70
2022-12-24T19:28:43.031Z,7.00
2022-12-24T19:31:15.539Z,6.37
2022-12-24T19:33:47.778Z,6.27
2022-12-24T19:36:17.774Z,7.03
2022-12-24T19:38:45.404Z,6.40
2022-12-24T19:41:17.407Z,6.37
2022-12-24T19:43:46.551Z,6.97
2022-12-24T19:46:16.065Z,7.03
2022-12-24T19:48:43.964Z,6.97
2022-12-24T19:51:12.331Z,5.73
2022-12-24T19:53:40.024Z,6.23
2022-12-24T19:56:08.631Z,5.83
2022-12-24T19:58:35.680Z,6.30
2022-12-24T20:01:14.458Z,6.10
2022-12-24T20:03:42.446Z,5.40
2022-12-24T20:06:09.544Z,5.07
2022-12-24T20:08:37.586Z,4.77
2022-12-24T20:11:06.535Z,6.13
2022-12-24T20:13:35.047Z,4.23
2022-12-24T20:16:12.202Z,5.87
2022-12-24T20:18:40.095Z,4.50
2022-12-24T20:21:09.240Z,4.03
2022-12-24T20:23:38.949Z,3.73
2022-12-24T20:26:06.942Z,4.83
2022-12-24T20:28:35.661Z,5.87
2022-12-24T20:31:14.584Z,4.60
2022-12-24T20:33:43.113Z,4.07
2022-12-24T20:36:10.950Z,4.63
2022-12-24T20:38:39.449Z,4.33
2022-12-24T20:41:07.286Z,4.37
2022-12-24T20:43:39.702Z,4.93
2022-12-24T20:46:10.667Z,5.00
2022-12-24T20:48:38.614Z,4.33
2022-12-24T20:51:07.181Z,4.23
2022-12-24T20:53:34.112Z,4.30
2022-12-24T20:56:01.152Z,4.30
2022-12-24T20:58:28.232Z,4.03
2022-12-24T21:00:54.994Z,4.00
2022-12-24T21:03:21.833Z,3.63
2022-12-24T21:05:48.729Z,4.00
2022-12-24T21:08:15.867Z,3.80
2022-12-24T21:10:42.715Z,3.60
2022-12-24T21:13:09.551Z,3.90
2022-12-24T21:15:41.254Z,3.90
2022-12-24T21:18:11.974Z,3.60
2022-12-24T21:20:40.630Z,3.47
2022-12-24T21:23:07.902Z,4.43
2022-12-24T21:25:35.716Z,3.63
2022-12-24T21:28:02.812Z,4.10
2022-12-24T21:30:30.827Z,4.13
2022-12-24T21:32:57.543Z,3.73
2022-12-24T21:35:24.307Z,4.27
2022-12-24T21:37:51.357Z,4.50
2022-12-24T21:40:18.500Z,4.20
2022-12-24T21:42:45.384Z,4.00
2022-12-24T21:45:12.425Z,3.77
2022-12-24T21:47:44.711Z,4.00
2022-12-24T21:50:32.253Z,3.03
2022-12-24T21:53:18.897Z,3.67
2022-12-24T21:55:45.850Z,3.03
2022-12-24T21:58:12.799Z,3.50
2022-12-24T22:00:39.819Z,3.67
2022-12-24T22:03:07.011Z,2.90
2022-12-24T22:05:35.248Z,3.27
2022-12-24T22:08:21.162Z,3.10
2022-12-24T22:11:06.509Z,4.17
2022-12-24T22:13:33.406Z,3.63
2022-12-24T22:16:00.317Z,3.13
2022-12-24T22:18:27.191Z,3.47
2022-12-24T22:20:55.794Z,3.00
2022-12-24T22:23:23.741Z,2.70
2022-12-24T22:25:50.536Z,3.27
2022-12-24T22:28:17.366Z,3.27
2022-12-24T22:30:44.224Z,3.27
2022-12-24T22:33:11.397Z,2.80
2022-12-24T22:35:41.442Z,2.77
2022-12-24T22:38:09.979Z,3.40
2022-12-24T22:40:40.033Z,3.50
2022-12-24T22:43:06.791Z,3.27
2022-12-24T22:45:33.620Z,2.40
2022-12-24T22:48:00.364Z,2.70
2022-12-24T22:50:27.169Z,3.07
2022-12-24T22:52:53.984Z,3.03
2022-12-24T22:55:21.486Z,3.27
2022-12-24T22:57:48.565Z,3.20
2022-12-24T23:00:41.268Z,2.50
2022-12-24T23:03:09.036Z,2.57
2022-12-24T23:05:36.459Z,2.97
2022-12-24T23:08:05.558Z,2.90
2022-12-24T23:10:32.537Z,2.37
2022-12-24T23:13:18.115Z,2.60
2022-12-24T23:15:45.206Z,2.90
2022-12-24T23:18:12.137Z,2.37
2022-12-24T23:20:42.227Z,3.83
2022-12-24T23:23:09.161Z,2.50
2022-12-24T23:25:35.883Z,2.43
2022-12-24T23:28:02.933Z,3.03
2022-12-24T23:30:30.128Z,2.87
2022-12-24T23:32:57.395Z,2.93
2022-12-24T23:35:24.491Z,2.77
2022-12-24T23:37:51.704Z,3.20
2022-12-24T23:40:18.636Z,2.23
2022-12-24T23:42:45.448Z,3.60
2022-12-24T23:45:12.342Z,2.30
2022-12-24T23:47:39.186Z,2.30
2022-12-24T23:50:06.660Z,2.40
2022-12-24T23:52:33.963Z,3.27
2022-12-24T23:55:00.669Z,2.70
2022-12-24T23:57:27.439Z,2.53
2022-12-24T23:59:54.172Z,3.10
